Time;durP1;ratioP1;P1;durP2;ratioP2;P2;SDS_P1;SDS_P2;PMS_P1;PMS_P2;Temp;Humidity;BMP_temperature;BMP_pressure;BME280_temperature;BME280_humidity;BME280_pressure;Samples;Min_cycle;Max_cycle;Signal;HPM_P1;HPM_P2
2021/12/21 00:00:45;;;;;;;4.67;3.20;;;-3.00;99.90;;;;;;4991538;28;20207;-57
2021/12/21 00:03:12;;;;;;;3.93;2.80;;;-3.00;99.90;;;;;;4992025;28;20207;-56
2021/12/21 00:05:40;;;;;;;4.37;3.20;;;-3.00;99.90;;;;;;4991683;28;20687;-54
2021/12/21 00:08:11;;;;;;;4.90;3.20;;;-3.00;99.90;;;;;;4991368;28;20208;-58
2021/12/21 00:10:39;;;;;;;3.90;3.00;;;-2.90;99.90;;;;;;4991785;28;20556;-56
2021/12/21 00:13:09;;;;;;;4.80;3.00;;;-2.90;99.90;;;;;;4991897;28;20654;-57
2021/12/21 00:15:50;;;;;;;6.17;3.57;;;-2.90;99.90;;;;;;4990589;28;20192;-55
2021/12/21 00:18:26;;;;;;;6.03;3.40;;;-2.90;99.90;;;;;;4972270;28;20287;-55
2021/12/21 00:21:00;;;;;;;4.80;3.00;;;-3.00;99.90;;;;;;4972200;28;20196;-55
2021/12/21 00:23:37;;;;;;;2.50;1.93;;;-3.10;99.90;;;;;;4972362;28;20616;-55
2021/12/21 00:26:08;;;;;;;2.20;2.00;;;-3.30;99.90;;;;;;4972150;28;20216;-57
2021/12/21 00:28:41;;;;;;;2.27;1.93;;;-3.50;99.90;;;;;;4975645;28;20331;-53
2021/12/21 00:31:07;;;;;;;2.87;2.10;;;-3.60;99.90;;;;;;4981358;28;20574;-55
2021/12/21 00:33:34;;;;;;;2.57;2.30;;;-3.70;99.90;;;;;;4995101;28;20207;-55
2021/12/21 00:36:01;;;;;;;5.27;3.07;;;-3.80;99.90;;;;;;4994910;28;20239;-55
2021/12/21 00:38:29;;;;;;;4.47;2.87;;;-3.80;99.90;;;;;;4995075;28;20569;-56
2021/12/21 00:40:56;;;;;;;5.23;3.50;;;-3.90;99.90;;;;;;4993389;28;20210;-52
2021/12/21 00:43:23;;;;;;;5.47;3.33;;;-3.90;99.90;;;;;;4975467;28;20234;-56
2021/12/21 00:45:50;;;;;;;5.97;4.00;;;-3.90;99.90;;;;;;4988567;28;20224;-56
2021/12/21 00:48:17;;;;;;;5.30;3.53;;;-3.90;99.90;;;;;;4994801;28;20215;-55
2021/12/21 00:50:44;;;;;;;6.00;3.47;;;-3.90;99.90;;;;;;4992213;28;20200;-55
2021/12/21 00:53:12;;;;;;;4.53;2.97;;;-3.90;99.90;;;;;;4986661;28;20291;-55
2021/12/21 00:55:40;;;;;;;7.27;3.10;;;-4.00;99.90;;;;;;4994741;28;20203;-55
2021/12/21 00:58:07;;;;;;;5.27;2.50;;;-4.00;99.90;;;;;;4994955;28;20254;-56
2021/12/21 01:00:33;;;;;;;3.40;2.63;;;-4.10;99.90;;;;;;4994031;28;20207;-54
2021/12/21 01:03:06;;;;;;;3.00;2.20;;;-4.00;99.90;;;;;;4990385;28;20200;-53
2021/12/21 01:05:41;;;;;;;3.70;2.30;;;-4.00;99.90;;;;;;4974741;28;20255;-53
2021/12/21 01:08:11;;;;;;;3.00;2.37;;;-4.00;99.90;;;;;;4976743;28;20247;-55
2021/12/21 01:13:38;;;;;;;2.97;2.27;;;-4.20;99.90;;;;;;4994460;28;20191;-55
2021/12/21 01:16:18;;;;;;;2.87;2.10;;;-4.20;99.90;;;;;;4994684;28;20695;-55
2021/12/21 01:19:00;;;;;;;2.83;2.23;;;-4.10;99.90;;;;;;4994585;28;20207;-60
2021/12/21 01:21:31;;;;;;;3.53;2.60;;;-4.20;99.90;;;;;;4994197;28;20211;-55
2021/12/21 01:26:52;;;;;;;2.90;2.27;;;-4.10;99.90;;;;;;4957814;28;20200;-56
2021/12/21 01:29:27;;;;;;;4.23;2.50;;;-4.20;99.90;;;;;;4974763;28;20228;-56
2021/12/21 01:32:01;;;;;;;3.90;2.50;;;-4.20;99.90;;;;;;4974664;28;20637;-57
2021/12/21 01:34:40;;;;;;;5.73;2.50;;;-4.20;99.90;;;;;;4974299;28;20731;-56
2021/12/21 01:37:15;;;;;;;4.77;2.90;;;-4.20;99.90;;;;;;4974670;28;20212;-53
2021/12/21 01:39:56;;;;;;;3.27;2.20;;;-4.30;99.90;;;;;;4973867;28;20310;-57
2021/12/21 01:42:36;;;;;;;3.43;2.47;;;-4.30;99.90;;;;;;4975972;28;20222;-57
2021/12/21 01:50:33;;;;;;;3.77;2.83;;;-4.30;99.90;;;;;;4974134;28;20191;-57
2021/12/21 01:52:59;;;;;;;3.57;2.70;;;-4.30;99.90;;;;;;4974491;28;20208;-56
2021/12/21 01:55:26;;;;;;;5.13;2.73;;;-4.30;99.90;;;;;;4973714;28;20215;-57
2021/12/21 01:57:54;;;;;;;3.33;2.40;;;-4.30;99.90;;;;;;4974632;28;20566;-54
2021/12/21 02:00:21;;;;;;;3.60;2.40;;;-4.30;99.90;;;;;;4974090;28;20203;-57
2021/12/21 02:02:48;;;;;;;3.83;2.70;;;-4.30;99.90;;;;;;4982788;28;20215;-57
2021/12/21 02:05:15;;;;;;;4.10;2.70;;;-4.40;99.90;;;;;;4991664;28;20514;-55
2021/12/21 02:07:42;;;;;;;4.30;2.47;;;-4.40;99.90;;;;;;4993563;28;20684;-55
2021/12/21 02:10:09;;;;;;;4.37;2.40;;;-4.40;99.90;;;;;;4993518;28;20210;-54
2021/12/21 02:12:36;;;;;;;3.57;2.27;;;-4.40;99.90;;;;;;4993539;28;20215;-54
2021/12/21 02:15:05;;;;;;;4.17;2.60;;;-4.40;99.90;;;;;;4993208;28;20214;-55
2021/12/21 02:18:04;;;;;;;3.63;2.67;;;-4.40;99.90;;;;;;4993106;28;20227;-57
2021/12/21 02:20:42;;;;;;;3.33;2.50;;;-4.40;99.90;;;;;;4992893;28;20266;-56
2021/12/21 02:23:13;;;;;;;4.13;2.57;;;-4.40;99.90;;;;;;4993223;28;20722;-57
2021/12/21 02:26:02;;;;;;;3.40;2.40;;;-4.50;99.90;;;;;;4977379;28;20196;-56
2021/12/21 02:28:46;;;;;;;11.53;2.53;;;-4.50;99.90;;;;;;4973263;28;20196;-54
2021/12/21 02:31:13;;;;;;;3.03;2.43;;;-4.50;99.90;;;;;;4973621;28;20192;-56
2021/12/21 02:33:40;;;;;;;2.90;2.20;;;-4.50;99.90;;;;;;4973852;28;20204;-56
2021/12/21 02:36:09;;;;;;;4.37;2.20;;;-4.50;99.90;;;;;;4972930;28;20247;-56
2021/12/21 02:38:36;;;;;;;2.80;2.43;;;-4.40;99.90;;;;;;4973525;28;20633;-56
2021/12/21 02:41:03;;;;;;;3.70;2.43;;;-4.40;99.90;;;;;;4973346;28;20208;-56
2021/12/21 02:43:30;;;;;;;2.90;2.20;;;-4.40;99.90;;;;;;4974168;28;20204;-54
2021/12/21 02:45:57;;;;;;;2.70;2.30;;;-4.50;99.90;;;;;;4979386;28;20207;-53
2021/12/21 02:48:24;;;;;;;2.53;2.10;;;-4.50;99.90;;;;;;4992713;28;20635;-55
2021/12/21 02:50:51;;;;;;;3.57;2.03;;;-4.50;99.90;;;;;;4992412;28;20208;-56
2021/12/21 02:53:19;;;;;;;2.67;2.20;;;-4.50;99.90;;;;;;4978233;28;20204;-53
2021/12/21 02:55:46;;;;;;;3.33;2.50;;;-4.50;99.90;;;;;;4973167;28;20204;-55
2021/12/21 02:58:13;;;;;;;6.57;2.37;;;-4.50;99.90;;;;;;4972769;28;20239;-55
2021/12/21 03:00:40;;;;;;;3.27;2.33;;;-4.50;99.90;;;;;;4978831;28;20581;-56
2021/12/21 03:03:12;;;;;;;2.57;2.13;;;-4.50;99.90;;;;;;4992354;28;20597;-56
2021/12/21 03:05:44;;;;;;;3.03;2.40;;;-4.50;99.90;;;;;;4992662;28;20214;-57
2021/12/21 03:08:15;;;;;;;2.63;2.10;;;-4.50;99.90;;;;;;4992235;28;20609;-55
2021/12/21 03:10:59;;;;;;;3.23;2.43;;;-4.50;99.90;;;;;;4992581;28;20195;-53
2021/12/21 03:16:10;;;;;;;3.70;2.13;;;-4.50;99.90;;;;;;4991917;28;20233;-56
2021/12/21 03:18:37;;;;;;;3.63;2.40;;;-4.40;99.90;;;;;;4992312;28;20538;-56
2021/12/21 03:21:04;;;;;;;3.23;2.33;;;-4.50;99.90;;;;;;4980214;28;20215;-53
2021/12/21 03:23:31;;;;;;;4.43;2.67;;;-4.50;99.90;;;;;;4972958;28;20207;-55
2021/12/21 03:25:59;;;;;;;3.10;2.47;;;-4.40;99.90;;;;;;4972806;28;20226;-55
2021/12/21 03:28:26;;;;;;;4.70;2.80;;;-4.40;99.90;;;;;;4972397;28;20295;-59
2021/12/21 03:30:53;;;;;;;3.13;2.50;;;-4.40;99.90;;;;;;4972761;28;20708;-56
2021/12/21 03:33:20;;;;;;;3.23;2.57;;;-4.40;99.90;;;;;;4972524;28;20207;-54
2021/12/21 03:35:47;;;;;;;4.30;2.43;;;-4.40;99.90;;;;;;4973217;28;20236;-56
2021/12/21 03:38:15;;;;;;;2.73;2.20;;;-4.40;99.90;;;;;;4972193;28;20208;-57
2021/12/21 03:40:42;;;;;;;5.13;2.63;;;-4.40;99.90;;;;;;4972665;28;20238;-56
2021/12/21 03:43:11;;;;;;;3.03;2.50;;;-4.40;99.90;;;;;;4972581;28;20259;-55
2021/12/21 03:45:42;;;;;;;4.50;2.70;;;-4.40;99.90;;;;;;4972665;28;20211;-56
2021/12/21 03:48:12;;;;;;;3.10;2.50;;;-4.30;99.90;;;;;;4972525;28;20330;-55
2021/12/21 03:50:39;;;;;;;4.43;2.93;;;-4.30;99.90;;;;;;4972807;28;20736;-54
2021/12/21 03:53:07;;;;;;;5.17;3.20;;;-4.20;99.90;;;;;;4972406;28;20208;-56
2021/12/21 03:55:34;;;;;;;4.53;3.20;;;-4.20;99.90;;;;;;4974283;28;20218;-58
2021/12/21 03:58:01;;;;;;;4.03;2.90;;;-4.20;99.90;;;;;;4991342;28;20243;-54
2021/12/21 04:00:29;;;;;;;3.03;2.73;;;-4.30;99.90;;;;;;4986265;28;20200;-57
2021/12/21 04:02:56;;;;;;;4.23;2.40;;;-4.30;99.90;;;;;;4976252;28;20683;-56
2021/12/21 04:05:23;;;;;;;4.20;2.60;;;-4.30;99.90;;;;;;4976352;28;20235;-55
2021/12/21 04:07:50;;;;;;;5.73;2.90;;;-4.30;99.90;;;;;;4975923;28;20211;-57
2021/12/21 04:10:16;;;;;;;4.13;2.90;;;-4.30;99.90;;;;;;4975890;28;20556;-55
2021/12/21 04:12:43;;;;;;;3.97;2.60;;;-4.30;99.90;;;;;;4976142;28;20242;-55
2021/12/21 04:15:12;;;;;;;5.23;2.87;;;-4.30;99.90;;;;;;4975834;28;20208;-56
2021/12/21 04:17:41;;;;;;;2.70;2.30;;;-4.30;99.90;;;;;;4976056;28;20220;-56
2021/12/21 04:20:09;;;;;;;3.43;2.50;;;-4.20;99.90;;;;;;4975635;28;20212;-55
2021/12/21 04:22:35;;;;;;;3.33;2.43;;;-4.10;99.90;;;;;;4983715;28;20200;-58
2021/12/21 04:25:02;;;;;;;3.03;2.47;;;-4.20;99.90;;;;;;4995255;28;20222;-53
2021/12/21 04:27:29;;;;;;;3.83;2.67;;;-4.30;99.90;;;;;;4995332;28;20215;-55
2021/12/21 04:29:56;;;;;;;3.20;2.67;;;-4.30;99.90;;;;;;4995139;28;20683;-56
2021/12/21 04:32:23;;;;;;;6.00;2.80;;;-4.30;99.90;;;;;;4976709;28;20577;-59
2021/12/21 04:34:51;;;;;;;3.70;2.67;;;-4.30;99.90;;;;;;4975517;28;20631;-54
2021/12/21 04:37:18;;;;;;;3.27;2.57;;;-4.40;99.90;;;;;;4975707;28;20228;-57
2021/12/21 04:39:51;;;;;;;6.90;3.50;;;-4.30;99.90;;;;;;4975655;28;20212;-55
2021/12/21 04:42:18;;;;;;;4.67;3.13;;;-4.20;99.90;;;;;;4975541;28;20279;-58
2021/12/21 04:44:45;;;;;;;3.73;2.90;;;-4.20;99.90;;;;;;4975109;28;20210;-55
2021/12/21 04:47:12;;;;;;;5.53;3.13;;;-4.20;99.90;;;;;;4975415;28;20207;-52
2021/12/21 04:49:39;;;;;;;3.77;2.80;;;-4.20;99.90;;;;;;4975136;28;20214;-56
2021/12/21 04:52:07;;;;;;;3.10;2.40;;;-4.20;99.90;;;;;;4975280;28;20691;-57
2021/12/21 04:54:34;;;;;;;3.33;2.70;;;-4.20;99.90;;;;;;4975375;28;20212;-55
2021/12/21 04:57:01;;;;;;;5.13;2.70;;;-4.30;99.90;;;;;;4974991;28;20224;-55
2021/12/21 04:59:28;;;;;;;4.33;2.37;;;-4.20;99.90;;;;;;4975651;28;20788;-55
2021/12/21 05:01:55;;;;;;;3.70;2.63;;;-4.30;99.90;;;;;;4994400;28;20214;-55
2021/12/21 05:04:22;;;;;;;3.57;2.67;;;-4.30;99.90;;;;;;4994492;28;20211;-53
2021/12/21 05:06:49;;;;;;;2.93;2.60;;;-4.20;99.90;;;;;;4986912;28;20611;-57
2021/12/21 05:09:25;;;;;;;3.50;2.50;;;-4.30;99.90;;;;;;4975275;28;20673;-54
2021/12/21 05:11:54;;;;;;;3.50;2.67;;;-4.40;99.90;;;;;;4974913;28;20192;-57
2021/12/21 05:14:21;;;;;;;4.43;2.67;;;-4.60;99.90;;;;;;4974817;28;20223;-58
2021/12/21 05:16:47;;;;;;;5.43;3.13;;;-4.60;99.90;;;;;;4976270;28;20580;-55
2021/12/21 05:19:14;;;;;;;4.50;2.83;;;-4.70;99.90;;;;;;4983310;28;20206;-54
2021/12/21 05:21:41;;;;;;;4.30;2.73;;;-4.60;99.90;;;;;;4994347;28;20229;-55
2021/12/21 05:24:08;;;;;;;6.53;3.10;;;-4.70;99.90;;;;;;4994154;28;20207;-55
2021/12/21 05:26:37;;;;;;;5.03;3.03;;;-4.70;99.90;;;;;;4994410;28;20210;-54
2021/12/21 05:29:04;;;;;;;3.87;2.60;;;-4.90;99.90;;;;;;4994007;28;20218;-58
2021/12/21 05:31:31;;;;;;;4.97;3.30;;;-5.00;99.90;;;;;;4993997;28;20652;-56
2021/12/21 05:33:58;;;;;;;3.37;2.60;;;-5.10;99.90;;;;;;4991574;28;20222;-55
2021/12/21 05:36:25;;;;;;;3.83;2.80;;;-5.10;99.90;;;;;;4974278;28;20243;-56
2021/12/21 05:38:58;;;;;;;3.13;2.30;;;-5.10;99.90;;;;;;4974447;28;20208;-55
2021/12/21 05:41:28;;;;;;;2.83;2.23;;;-5.10;99.90;;;;;;4974626;28;20625;-55
2021/12/21 05:43:57;;;;;;;2.57;2.30;;;-5.20;99.90;;;;;;4974393;28;20678;-56
2021/12/21 05:46:24;;;;;;;4.50;2.80;;;-5.20;99.90;;;;;;4983618;28;20214;-53
2021/12/21 05:48:52;;;;;;;4.40;2.93;;;-5.20;99.90;;;;;;4993428;28;20208;-56
2021/12/21 05:51:20;;;;;;;4.77;2.87;;;-5.20;99.90;;;;;;4993944;28;20214;-55
2021/12/21 05:53:47;;;;;;;5.27;3.10;;;-5.40;99.90;;;;;;4993600;28;20219;-56
2021/12/21 05:56:14;;;;;;;9.37;4.37;;;-5.40;99.90;;;;;;4993414;28;20207;-56
2021/12/21 05:58:41;;;;;;;8.23;4.27;;;-5.40;99.90;;;;;;4992961;28;20232;-53
2021/12/21 06:01:09;;;;;;;5.80;3.10;;;-5.50;99.90;;;;;;4986854;28;20672;-54
2021/12/21 06:03:36;;;;;;;4.77;3.30;;;-5.50;99.90;;;;;;4974007;28;20227;-55
2021/12/21 06:06:03;;;;;;;5.57;3.10;;;-5.50;99.90;;;;;;4979248;28;20211;-55
2021/12/21 06:08:30;;;;;;;6.23;3.47;;;-5.40;99.90;;;;;;4982662;28;20564;-59
2021/12/21 06:10:57;;;;;;;4.57;3.17;;;-5.40;99.90;;;;;;4983171;28;20262;-56
2021/12/21 06:13:47;;;;;;;5.33;3.33;;;-5.40;99.90;;;;;;4984067;28;20207;-56
2021/12/21 06:22:43;;;;;;;4.13;2.90;;;-5.50;99.90;;;;;;4983308;28;20200;-54
2021/12/21 06:27:33;;;;;;;4.67;2.73;;;-5.60;99.90;;;;;;4982802;28;20216;-56
2021/12/21 06:30:01;;;;;;;4.60;2.60;;;-5.60;99.90;;;;;;4983600;28;20199;-55
2021/12/21 06:32:29;;;;;;;4.53;3.10;;;-5.70;99.90;;;;;;4982097;28;20203;-55
2021/12/21 06:34:56;;;;;;;6.20;3.27;;;-5.70;99.90;;;;;;4982870;28;20231;-58
2021/12/21 06:37:23;;;;;;;6.03;3.47;;;-5.70;99.90;;;;;;4981210;28;20227;-55
2021/12/21 06:39:51;;;;;;;5.80;3.37;;;-5.80;99.90;;;;;;4982092;28;20212;-55
2021/12/21 06:42:18;;;;;;;3.53;2.47;;;-5.90;99.90;;;;;;4980965;28;20208;-57
2021/12/21 06:44:53;;;;;;;4.23;3.00;;;-6.00;99.90;;;;;;4977492;28;20243;-56
2021/12/21 06:52:52;;;;;;;4.73;3.37;;;-6.20;99.90;;;;;;4979750;28;20310;-56
2021/12/21 06:55:19;;;;;;;3.97;2.80;;;-6.30;99.90;;;;;;4973264;28;20202;-52
2021/12/21 06:57:46;;;;;;;3.90;2.80;;;-6.40;99.90;;;;;;4977891;28;20843;-56
2021/12/21 07:00:15;;;;;;;3.27;2.40;;;-6.40;99.90;;;;;;4973467;28;20200;-53
2021/12/21 07:02:42;;;;;;;4.27;3.00;;;-6.60;99.90;;;;;;4973189;28;20203;-56
2021/12/21 07:05:12;;;;;;;4.00;2.70;;;-6.60;99.90;;;;;;4981918;28;20295;-53
2021/12/21 07:07:40;;;;;;;3.73;2.60;;;-6.60;99.90;;;;;;4973013;28;20204;-57
2021/12/21 07:10:11;;;;;;;4.00;2.80;;;-6.80;99.90;;;;;;4973303;28;20212;-56
2021/12/21 07:18:13;;;;;;;4.80;2.50;;;-7.10;99.90;;;;;;4983462;28;20238;-56
2021/12/21 07:20:41;;;;;;;4.27;2.60;;;-7.10;99.90;;;;;;4991269;28;20224;-56
2021/12/21 07:23:08;;;;;;;2.90;2.40;;;-7.20;99.90;;;;;;4988390;28;20213;-55
2021/12/21 07:25:35;;;;;;;4.30;2.50;;;-7.20;99.90;;;;;;4975424;28;20200;-59
2021/12/21 07:28:02;;;;;;;4.67;2.83;;;-7.30;99.90;;;;;;4975237;28;20200;-58
2021/12/21 07:30:29;;;;;;;4.43;3.00;;;-7.30;99.90;;;;;;4984569;28;20208;-57
2021/12/21 07:32:55;;;;;;;2.73;2.10;;;-7.30;99.90;;;;;;4972773;28;20227;-55
2021/12/21 07:35:22;;;;;;;5.57;3.10;;;-7.30;99.90;;;;;;4972749;28;20227;-52
2021/12/21 07:37:50;;;;;;;2.53;2.30;;;-7.30;99.90;;;;;;4972253;28;20228;-59
2021/12/21 07:40:18;;;;;;;4.17;2.80;;;-7.30;99.90;;;;;;4984013;28;20208;-58
2021/12/21 07:42:45;;;;;;;3.40;2.50;;;-7.30;99.90;;;;;;4972493;28;20219;-57
2021/12/21 07:45:12;;;;;;;3.13;2.30;;;-7.40;99.90;;;;;;4986015;28;20203;-58
2021/12/21 07:47:39;;;;;;;3.63;2.67;;;-7.50;99.90;;;;;;4983693;28;20645;-56
2021/12/21 07:50:08;;;;;;;3.40;2.40;;;-7.60;99.90;;;;;;4980609;28;20230;-55
2021/12/21 07:52:35;;;;;;;2.80;2.33;;;-7.70;99.90;;;;;;4981631;28;20231;-52
2021/12/21 07:55:05;;;;;;;4.67;2.73;;;-7.60;99.90;;;;;;4982150;28;20558;-54
2021/12/21 07:57:32;;;;;;;3.87;2.70;;;-7.60;99.90;;;;;;4974021;28;20590;-55
2021/12/21 08:00:02;;;;;;;4.57;2.87;;;-7.60;99.90;;;;;;4972430;28;20208;-52
2021/12/21 08:02:29;;;;;;;5.03;2.90;;;-7.60;99.90;;;;;;4983383;28;20234;-57
2021/12/21 08:04:56;;;;;;;7.27;3.83;;;-7.70;99.90;;;;;;4974469;28;20204;-55
2021/12/21 08:07:30;;;;;;;4.50;3.07;;;-7.70;99.90;;;;;;4972345;28;20571;-56
2021/12/21 08:09:58;;;;;;;6.23;3.07;;;-7.80;99.90;;;;;;4972846;28;20202;-53
2021/12/21 08:12:27;;;;;;;4.30;2.70;;;-7.80;99.90;;;;;;4972541;28;20681;-57
2021/12/21 08:14:54;;;;;;;7.53;3.80;;;-7.70;99.90;;;;;;4974564;28;20200;-58
2021/12/21 08:17:21;;;;;;;6.10;3.60;;;-7.80;99.90;;;;;;4979758;28;20204;-56
2021/12/21 08:19:48;;;;;;;7.67;3.90;;;-7.80;99.90;;;;;;4973050;28;20227;-57
2021/12/21 08:22:16;;;;;;;7.20;3.83;;;-7.90;99.90;;;;;;4972759;28;20727;-58
2021/12/21 08:24:43;;;;;;;4.23;3.17;;;-7.90;99.90;;;;;;4991257;28;20664;-57
2021/12/21 08:27:11;;;;;;;5.60;3.43;;;-7.80;99.90;;;;;;4992243;28;20203;-58
2021/12/21 08:29:39;;;;;;;7.67;4.00;;;-7.80;99.90;;;;;;4990184;28;20586;-58
2021/12/21 08:32:07;;;;;;;5.80;3.70;;;-7.80;99.90;;;;;;4992128;28;20214;-59
2021/12/21 08:34:34;;;;;;;5.03;3.10;;;-7.80;99.90;;;;;;4991372;28;20243;-58
2021/12/21 08:37:01;;;;;;;7.20;3.83;;;-7.80;99.90;;;;;;4991998;28;20680;-56
2021/12/21 08:39:30;;;;;;;7.70;4.00;;;-7.70;99.90;;;;;;4989359;28;20226;-54
2021/12/21 08:41:59;;;;;;;4.87;3.40;;;-7.70;99.90;;;;;;4982018;28;20316;-58
2021/12/21 08:44:26;;;;;;;7.23;3.50;;;-7.70;99.90;;;;;;4979913;28;20597;-56
2021/12/21 08:46:56;;;;;;;6.17;4.30;;;-7.70;99.90;;;;;;4979952;28;20203;-56
2021/12/21 08:49:23;;;;;;;6.87;3.83;;;-7.70;99.90;;;;;;4974956;28;20239;-57
2021/12/21 08:51:50;;;;;;;6.83;3.90;;;-7.70;99.90;;;;;;4986781;28;20680;-55
2021/12/21 08:54:17;;;;;;;6.57;3.47;;;-7.70;99.90;;;;;;4992628;28;20199;-54
2021/12/21 08:56:45;;;;;;;6.77;3.47;;;-7.90;99.90;;;;;;4994862;28;20208;-56
2021/12/21 08:59:15;;;;;;;6.73;3.80;;;-7.90;99.90;;;;;;4995070;28;20234;-54
2021/12/21 09:01:41;;;;;;;7.63;4.00;;;-7.80;99.90;;;;;;4984318;28;20631;-55
2021/12/21 09:04:10;;;;;;;9.57;4.20;;;-7.80;99.90;;;;;;4979184;28;20201;-55
2021/12/21 09:06:36;;;;;;;4.73;3.10;;;-7.80;99.90;;;;;;4983901;28;20200;-56
2021/12/21 09:09:04;;;;;;;5.17;3.63;;;-7.80;99.90;;;;;;4975685;28;20211;-57
2021/12/21 09:11:31;;;;;;;5.50;3.30;;;-7.80;99.90;;;;;;4992533;28;20266;-57
2021/12/21 09:13:58;;;;;;;6.60;3.97;;;-7.80;99.90;;;;;;4994483;28;20199;-58
2021/12/21 09:16:24;;;;;;;11.03;3.83;;;-7.70;99.90;;;;;;4992118;28;20207;-57
2021/12/21 09:18:51;;;;;;;6.90;4.20;;;-7.80;99.90;;;;;;4994318;28;20227;-57
2021/12/21 09:21:19;;;;;;;5.00;3.60;;;-7.80;99.90;;;;;;4994725;28;20690;-59
2021/12/21 09:23:46;;;;;;;10.87;4.80;;;-7.90;99.90;;;;;;4994540;28;20223;-58
2021/12/21 09:26:13;;;;;;;5.23;3.60;;;-8.10;99.90;;;;;;4994458;28;20567;-55
2021/12/21 09:28:40;;;;;;;8.70;3.40;;;-8.20;99.90;;;;;;4993527;28;20210;-58
2021/12/21 09:31:07;;;;;;;3.60;2.90;;;-8.20;99.90;;;;;;4983208;28;20211;-57
2021/12/21 09:33:33;;;;;;;4.43;2.63;;;-8.20;99.90;;;;;;4994134;28;20210;-54
2021/12/21 09:36:00;;;;;;;6.23;3.17;;;-8.30;99.90;;;;;;4991658;28;20231;-56
2021/12/21 09:38:28;;;;;;;6.73;3.73;;;-8.40;99.90;;;;;;4981756;28;20227;-58
2021/12/21 09:40:56;;;;;;;7.03;4.00;;;-8.40;99.90;;;;;;4974377;28;20437;-56
2021/12/21 09:43:23;;;;;;;6.07;3.80;;;-8.40;99.90;;;;;;4979210;28;20200;-55
2021/12/21 09:45:50;;;;;;;5.40;3.60;;;-8.30;99.90;;;;;;4985720;28;20222;-55
2021/12/21 09:48:17;;;;;;;6.70;3.50;;;-8.30;99.90;;;;;;4988236;28;20199;-56
2021/12/21 09:50:44;;;;;;;4.63;3.00;;;-8.30;99.90;;;;;;4994031;28;20203;-56
2021/12/21 09:53:11;;;;;;;4.50;3.20;;;-8.20;99.90;;;;;;4987700;28;20214;-59
2021/12/21 09:55:39;;;;;;;6.03;3.63;;;-8.20;99.90;;;;;;4987392;28;20208;-56
2021/12/21 09:58:06;;;;;;;3.87;2.97;;;-8.20;99.90;;;;;;4979216;28;20290;-56
2021/12/21 10:00:34;;;;;;;5.60;3.30;;;-8.30;99.90;;;;;;4978230;28;20211;-57
2021/12/21 10:03:04;;;;;;;6.80;3.70;;;-8.40;99.90;;;;;;4993230;28;20657;-56
2021/12/21 10:05:33;;;;;;;6.33;3.20;;;-8.30;99.90;;;;;;4989226;28;20307;-55
2021/12/21 10:08:02;;;;;;;6.23;3.53;;;-8.30;99.90;;;;;;4986380;28;20204;-56
2021/12/21 10:10:33;;;;;;;6.23;3.80;;;-8.30;99.90;;;;;;4982825;28;20204;-56
2021/12/21 10:13:10;;;;;;;6.93;3.60;;;-8.30;99.90;;;;;;4976641;28;20255;-57
2021/12/21 10:15:43;;;;;;;5.50;3.87;;;-8.30;99.90;;;;;;4992297;28;20202;-55
2021/12/21 10:18:10;;;;;;;5.67;3.53;;;-8.40;99.90;;;;;;4991792;28;20227;-57
2021/12/21 10:20:39;;;;;;;7.83;4.13;;;-8.40;99.90;;;;;;4992722;28;20564;-58
2021/12/21 10:23:12;;;;;;;9.00;4.63;;;-8.40;99.90;;;;;;4992732;28;20214;-53
2021/12/21 10:25:44;;;;;;;4.87;4.03;;;-8.40;99.90;;;;;;4975438;28;20204;-52
2021/12/21 10:28:13;;;;;;;6.30;4.00;;;-8.30;99.90;;;;;;4972969;28;20208;-55
2021/12/21 10:30:54;;;;;;;6.83;4.27;;;-8.20;99.90;;;;;;4989604;28;20207;-56
2021/12/21 10:33:23;;;;;;;5.10;3.63;;;-8.30;99.90;;;;;;4992854;28;20222;-54
2021/12/21 10:35:51;;;;;;;6.97;4.37;;;-8.30;99.90;;;;;;4992882;28;20331;-56
2021/12/21 10:38:26;;;;;;;9.53;4.47;;;-8.20;99.90;;;;;;4991956;28;20223;-53
2021/12/21 10:40:53;;;;;;;6.37;3.97;;;-8.20;99.90;;;;;;4992446;28;20301;-56
2021/12/21 10:43:26;;;;;;;5.30;3.47;;;-8.10;99.90;;;;;;4992105;28;20219;-54
2021/12/21 10:45:53;;;;;;;3.43;2.90;;;-8.10;99.90;;;;;;4992461;28;20196;-56
2021/12/21 10:48:22;;;;;;;5.40;3.67;;;-8.20;99.90;;;;;;4988073;28;20199;-55
2021/12/21 10:50:49;;;;;;;5.10;3.30;;;-8.20;99.90;;;;;;4985386;28;20204;-53
2021/12/21 10:53:18;;;;;;;5.63;4.40;;;-8.20;99.90;;;;;;4990920;28;20684;-57
2021/12/21 10:55:46;;;;;;;4.57;3.33;;;-8.10;99.90;;;;;;4972652;28;20216;-58
2021/12/21 10:58:16;;;;;;;6.17;4.67;;;-8.10;99.90;;;;;;4972775;28;20208;-59
2021/12/21 11:00:47;;;;;;;4.10;3.03;;;-8.00;99.90;;;;;;4986972;28;20644;-54
2021/12/21 11:03:18;;;;;;;5.70;3.80;;;-8.00;99.90;;;;;;4991932;28;20231;-57
2021/12/21 11:05:45;;;;;;;4.00;2.97;;;-7.90;99.90;;;;;;4988622;28;20188;-54
2021/12/21 11:08:24;;;;;;;3.67;2.60;;;-7.90;99.90;;;;;;4982334;28;20196;-54
2021/12/21 11:10:56;;;;;;;5.57;3.40;;;-7.90;99.90;;;;;;4976026;28;20626;-57
2021/12/21 11:13:23;;;;;;;3.57;2.93;;;-7.90;99.90;;;;;;4973807;28;20210;-55
2021/12/21 11:15:55;;;;;;;3.70;2.63;;;-8.00;99.90;;;;;;4989363;28;20200;-60
2021/12/21 11:18:23;;;;;;;3.97;2.87;;;-8.00;99.90;;;;;;4992479;28;20266;-56
2021/12/21 11:20:56;;;;;;;6.20;3.37;;;-8.10;99.90;;;;;;4992513;28;20207;-56
2021/12/21 11:23:25;;;;;;;5.50;3.30;;;-8.10;99.90;;;;;;4979370;28;20247;-57
2021/12/21 11:25:56;;;;;;;4.00;2.83;;;-8.20;99.90;;;;;;4973035;28;20208;-58
2021/12/21 11:28:25;;;;;;;4.97;3.20;;;-8.30;99.90;;;;;;4972926;28;20196;-55
2021/12/21 11:30:58;;;;;;;4.60;2.97;;;-8.30;99.90;;;;;;4991215;28;20219;-57
2021/12/21 11:33:27;;;;;;;4.67;3.00;;;-8.20;99.90;;;;;;4992155;28;20196;-59
2021/12/21 11:38:39;;;;;;;6.93;4.00;;;-8.10;99.90;;;;;;4992242;28;20217;-57
2021/12/21 11:41:07;;;;;;;4.93;3.30;;;-8.10;99.90;;;;;;4991469;28;20208;-57
2021/12/21 11:43:41;;;;;;;5.70;3.30;;;-8.10;99.90;;;;;;4992335;28;20218;-56
2021/12/21 11:46:14;;;;;;;5.63;3.30;;;-8.10;99.90;;;;;;4991991;28;20191;-58
2021/12/21 11:48:47;;;;;;;5.20;3.20;;;-8.00;99.90;;;;;;4987088;28;20191;-57
2021/12/21 11:51:15;;;;;;;4.90;3.30;;;-8.10;99.90;;;;;;4991891;28;20199;-57
2021/12/21 11:53:42;;;;;;;5.10;3.17;;;-8.20;99.90;;;;;;4985834;28;20207;-54
2021/12/21 11:56:10;;;;;;;4.60;3.03;;;-8.20;99.90;;;;;;4985693;28;20210;-56
2021/12/21 11:58:40;;;;;;;7.03;3.80;;;-8.30;99.90;;;;;;4989880;28;20235;-54
2021/12/21 12:01:15;;;;;;;4.13;2.80;;;-8.30;99.90;;;;;;4991876;28;20209;-58
2021/12/21 12:03:46;;;;;;;4.13;3.27;;;-8.40;99.90;;;;;;4992260;28;20559;-55
2021/12/21 12:06:15;;;;;;;5.23;3.20;;;-8.50;99.90;;;;;;4984354;28;20239;-56
2021/12/21 12:08:44;;;;;;;3.73;2.80;;;-8.50;99.90;;;;;;4972726;28;20210;-59
2021/12/21 12:11:26;;;;;;;4.30;3.23;;;-8.50;99.90;;;;;;4972364;28;20226;-56
2021/12/21 12:14:05;;;;;;;4.93;3.20;;;-8.50;99.90;;;;;;4971514;28;20200;-55
2021/12/21 12:16:43;;;;;;;5.47;3.27;;;-8.50;99.90;;;;;;4977755;28;20266;-56
2021/12/21 12:19:12;;;;;;;5.00;3.53;;;-8.60;99.90;;;;;;4991631;28;20242;-55
2021/12/21 12:21:39;;;;;;;5.33;4.00;;;-8.60;99.90;;;;;;4991867;28;20585;-56
2021/12/21 12:24:06;;;;;;;5.77;3.77;;;-8.50;99.90;;;;;;4994803;28;20646;-60
2021/12/21 12:26:34;;;;;;;5.57;3.23;;;-8.50;99.90;;;;;;4995443;28;20214;-59
2021/12/21 12:29:11;;;;;;;3.77;3.20;;;-8.50;99.90;;;;;;4995786;28;20203;-54
2021/12/21 12:31:41;;;;;;;3.70;2.97;;;-8.50;99.90;;;;;;4995836;28;20207;-59
2021/12/21 12:34:09;;;;;;;5.07;3.33;;;-8.50;99.90;;;;;;4995824;28;20195;-58
2021/12/21 12:36:39;;;;;;;5.77;3.43;;;-8.50;99.90;;;;;;4995685;28;20560;-58
2021/12/21 12:39:09;;;;;;;5.93;3.30;;;-8.50;99.90;;;;;;4995311;28;20215;-55
2021/12/21 12:41:47;;;;;;;6.20;3.77;;;-8.60;99.90;;;;;;4995123;28;20211;-57
2021/12/21 12:44:22;;;;;;;6.20;3.57;;;-8.60;99.90;;;;;;4995493;28;20212;-57
2021/12/21 12:46:57;;;;;;;4.53;2.77;;;-8.70;99.90;;;;;;4994868;28;20206;-61
2021/12/21 12:49:25;;;;;;;6.20;3.60;;;-8.60;99.90;;;;;;4995398;28;20302;-57
2021/12/21 12:51:52;;;;;;;5.43;3.53;;;-8.60;99.90;;;;;;4995297;28;20211;-56
2021/12/21 12:54:22;;;;;;;4.43;3.00;;;-8.60;99.90;;;;;;4994888;28;20258;-53
2021/12/21 12:56:49;;;;;;;5.50;3.57;;;-8.60;99.90;;;;;;4995163;28;20222;-56
2021/12/21 12:59:17;;;;;;;4.63;3.37;;;-8.50;99.90;;;;;;4994787;28;20231;-57
2021/12/21 13:01:46;;;;;;;5.97;3.70;;;-8.60;99.90;;;;;;4995063;28;20214;-55
2021/12/21 13:04:17;;;;;;;6.33;4.10;;;-8.60;99.90;;;;;;4994788;28;20306;-55
2021/12/21 13:06:48;;;;;;;6.63;3.50;;;-8.60;99.90;;;;;;4995068;28;20192;-57
2021/12/21 13:09:18;;;;;;;5.73;3.30;;;-8.70;99.90;;;;;;4995020;28;20704;-55
2021/12/21 13:11:45;;;;;;;5.77;4.10;;;-8.60;99.90;;;;;;4994449;28;20211;-53
2021/12/21 13:14:13;;;;;;;9.53;3.73;;;-8.70;99.90;;;;;;4994899;28;20266;-55
2021/12/21 13:16:42;;;;;;;6.73;4.27;;;-8.70;99.90;;;;;;4994573;28;20203;-54
2021/12/21 13:19:11;;;;;;;6.13;3.97;;;-8.70;99.90;;;;;;4994636;28;20238;-54
2021/12/21 13:21:44;;;;;;;7.33;4.57;;;-8.70;99.90;;;;;;4994494;28;20215;-56
2021/12/21 13:24:12;;;;;;;5.77;4.30;;;-8.70;99.90;;;;;;4994490;28;20195;-56
2021/12/21 13:26:42;;;;;;;8.67;5.20;;;-8.70;99.90;;;;;;4994278;28;20215;-55
2021/12/21 13:29:10;;;;;;;6.73;3.90;;;-8.70;99.90;;;;;;4994843;28;20675;-58
2021/12/21 13:31:38;;;;;;;9.53;4.40;;;-8.70;99.90;;;;;;4994394;28;20211;-55